CheckWX is a tool to help pilots better visualize weather data.  It is not intended as a substitute for an official pre-flight weather briefing.

13:13:14 UTC

FWCL METAR
Chileka International Airport
Blantyre, Malawi
Current

13 mins ago

FWCL 221300Z 19011KT 9999 FEW030 26/17 Q1016 NOSIG
Observed
Feb-22 @ 13:00 UTC
Wind
  • 190° at 11 KTS
Visibility
10,000+ meters
Flight Rules
VFR
Cloud Levels
  • Few at 3,000' AGL
Temperature
26°C / 79°F
Dewpoint
17°C / 63°F
Humidity
58%
Altimeter
30" Hg
Pressure
1015.92 hPa
Previous

1 hour ago

FWCL 221200Z 22013KT 9999 FEW030 26/17 Q1016 NOSIG
Observed
Feb-22 @ 12:00 UTC
Wind
  • 220° at 13 KTS
Visibility
10,000+ meters
Flight Rules
VFR
Cloud Levels
  • Few at 3,000' AGL
Temperature
26°C / 79°F
Dewpoint
17°C / 63°F
Humidity
58%
Altimeter
30" Hg
Pressure
1015.92 hPa
Previous

2 hours ago

FWCL 221100Z 21012KT 9999 FEW030 26/19 Q1017 NOSIG
Observed
Feb-22 @ 11:00 UTC
Wind
  • 210° at 12 KTS
Visibility
10,000+ meters
Flight Rules
VFR
Cloud Levels
  • Few at 3,000' AGL
Temperature
26°C / 79°F
Dewpoint
19°C / 66°F
Humidity
65%
Altimeter
30.03" Hg
Pressure
1016.92 hPa